ENG CAT
Escuela de Pilotos
Teléfono 972234126 972 23 41 26
 
Aerbrava - Meteorología

Información meteorológica aeronáutica

 

En este apartado aparece la información meteorológica aeronáutica que es utilizada en las prácticas de los alumnos de la Escuela de Pilotos de nuestro centro durante su formación, por lo que puede no ser actual y se debería utilizar por su propia cuenta y riesgo. AERBRAVA no se hace responsable de su uso.

 

TIEMPO ACTUAL

Satélite Meteorológico

sat24.com

Servei Meteorològic de Catalunya

 

Data at: 1253 UTC 28 Sep 2022
LEGE 281230Z 15002KT CAVOK 24/10 Q1006
LEGE 281200Z 13003KT 060V220 9999 FEW080 23/11 Q1007
LEGE 281130Z 17003KT 9999 FEW080 23/11 Q1007
LEGE 281100Z 17004KT 120V210 CAVOK 23/13 Q1007
LEGE 281030Z 18004KT 140V230 CAVOK 22/11 Q1007
LEGE 281000Z VRB02KT CAVOK 22/11 Q1008
LEGE 280930Z 19002KT CAVOK 21/11 Q1008
LEGE 280900Z VRB02KT CAVOK 21/10 Q1008

TAF LEGE 281100Z 2812/2912 14008KT 9999 FEW020 SCT040 TX25/2813Z TN12/2906Z
  PROB40
  TEMPO 2814/2822 FEW040TCU
  PROB30
  TEMPO 2814/2822 TS SHRA BKN020 FEW040CB
  BECMG 2818/2820 VRB03KT
  BECMG 2909/2911 17011KT

Aviation Weather

 
Aerbrava en el facebook Aerbrava en el twitter Aerbrava instagram

¡html Vàlid! ¡CSS Vàlid!